Latest Weather Observations for Maroochydore

IDQ60901

Issued at 6:31 pm EST Monday 3 August 2015 (issued every 10 minutes, with the page automatically refreshed every 10 minutes)

About weather observations | Map of Brisbane area stations | Latest observations for Brisbane area | Other Formats
Station Details ID: 040861 Name: SUNSHINE COAST AIRPORT Lat: -26.60 Lon: 153.09 Height: 3.3 m
Data from the previous 72 hours. | See also: Recent months at Maroochydore
Date/Time
EST
Tmp

°C
App
Tmp
°C
Dew
Point
°C
Rel
Hum
%
Delta-T

°C
Wind Press
QNH
hPa
Press
MSL
hPa
Rain
since
9 am
mm
Dir
 
Spd
km/h
Gust
km/h
Spd
kts
Gust
kts
03/06:00pm 20.2 18.3 15.8 76 2.6 N 20 24 11 13 1015.1 1015.1 0.0
03/05:30pm 19.6 18.4 16.1 80 2.1 N 17 20 9 11 1014.9 - 0.0
03/05:00pm 20.5 18.9 16.5 78 2.4 N 20 26 11 14 1014.8 - 0.0
03/04:30pm 21.2 18.6 16.8 76 2.7 N 26 32 14 17 1014.6 - 0.0
03/04:00pm 22.2 20.2 17.3 74 3.0 N 24 32 13 17 1014.6 - 0.0
03/03:30pm 22.7 20.3 17.4 72 3.3 N 26 35 14 19 1014.8 - 0.0
03/03:00pm 23.2 21.2 17.4 70 3.6 N 24 30 13 16 1014.8 1014.8 0.0
03/02:30pm 23.9 21.9 17.4 67 4.0 NNE 24 32 13 17 1014.9 - 0.0
03/02:00pm 24.2 22.2 17.4 65 4.2 NNE 24 32 13 17 1015.1 - 0.0
03/01:30pm 25.6 24.7 15.9 55 5.9 N 15 22 8 12 1015.5 - 0.0
03/01:00pm 26.3 24.4 14.1 47 7.2 NNW 17 24 9 13 1015.9 - 0.0
03/12:30pm 25.7 23.5 14.8 51 6.5 N 20 30 11 16 1016.4 - 0.0
03/12:00pm 25.3 23.1 14.4 50 6.5 NNW 19 28 10 15 1017.1 1017.1 0.0
03/11:30am 25.0 22.2 14.2 51 6.4 NW 22 30 12 16 1017.7 - 0.0
03/11:00am 24.7 22.8 15.1 55 5.8 NW 19 32 10 17 1018.4 - 0.0
03/10:30am 23.6 22.4 16.1 62 4.6 NNW 17 24 9 13 1019.0 - 0.0
03/10:00am 22.4 21.8 16.7 70 3.5 NW 15 22 8 12 1019.3 - 0.0
03/09:30am 21.4 20.7 16.4 73 3.0 NW 15 20 8 11 1019.4 - 0.0
03/09:00am 19.9 19.2 16.5 81 2.0 NW 15 20 8 11 1019.4 1019.4 0.2
03/08:30am 18.4 17.7 16.4 88 1.2 NW 15 20 8 11 1019.5 - 0.2
03/08:00am 16.9 16.3 15.6 92 0.8 NNW 13 19 7 10 1019.4 - 0.2
03/07:30am 15.6 15.2 15.1 97 0.3 N 11 15 6 8 1019.2 - 0.2
03/07:00am 13.9 13.3 13.4 97 0.3 NNW 9 13 5 7 1018.9 - 0.2
03/06:30am 12.9 11.6 12.4 97 0.3 NNW 11 13 6 7 1018.9 - 0.2
03/06:00am 12.5 11.4 11.9 96 0.3 NNW 9 11 5 6 1018.7 1018.7 0.2
03/05:30am 13.6 12.5 13.0 96 0.3 NW 11 15 6 8 1018.6 - 0.2
03/05:00am 13.6 12.5 13.0 96 0.3 NW 11 15 6 8 1018.4 - 0.2
03/04:30am 13.3 12.1 12.7 96 0.3 NW 11 15 6 8 1018.3 - 0.2
03/04:00am 13.4 11.8 12.8 96 0.3 NW 13 17 7 9 1018.3 - 0.2
03/03:30am 13.4 11.5 12.9 97 0.3 NW 15 19 8 10 1018.4 - 0.0
03/03:00am 13.0 11.3 12.5 97 0.3 NW 13 17 7 9 1018.4 1018.4 0.0
03/02:30am 11.2 9.7 10.6 96 0.3 NW 9 13 5 7 1018.8 - 0.0
03/02:28am 10.8 9.2 10.2 96 0.3 NW 9 13 5 7 1018.8 - 0.0
03/02:00am 10.2 10.1 9.4 95 0.4 CALM 0 0 0 0 1019.1 - 0.0
03/01:30am 11.0 11.1 10.2 95 0.4 CALM 0 0 0 0 1019.4 - 0.0
03/01:26am 10.9 11.0 10.1 95 0.4 CALM 0 0 0 0 1019.5 - 0.0
03/01:00am 12.0 12.4 11.4 96 0.3 CALM 0 0 0 0 1019.9 - 0.0
03/12:30am 11.1 11.2 10.2 94 0.5 CALM 0 0 0 0 1020.0 - 0.0
03/12:00am 11.7 12.0 10.8 94 0.5 CALM 0 0 0 0 1020.1 1020.1 0.0
 
Date/Time
EST
Tmp

°C
App
Tmp
°C
Dew
Point
°C
Rel
Hum
%
Delta-T

°C
Wind Press
QNH
hPa
Press
MSL
hPa
Rain
since
9 am
mm
Dir
 
Spd
km/h
Gust
km/h
Spd
kts
Gust
kts
02/11:30pm 13.2 12.8 12.3 94 0.5 N 6 7 3 4 1020.0 - 0.0
02/11:00pm 13.3 14.1 12.4 94 0.5 CALM 0 0 0 0 1020.2 - 0.0
02/10:30pm 13.1 13.7 11.8 92 0.7 CALM 0 4 0 2 1020.3 - 0.0
02/10:00pm 14.1 13.3 12.8 92 0.7 NW 9 11 5 6 1020.4 - 0.0
02/09:30pm 14.8 14.2 13.5 92 0.7 NNW 9 13 5 7 1020.3 - 0.0
02/09:00pm 15.4 15.0 14.1 92 0.7 NW 9 11 5 6 1020.3 1020.3 0.0
02/08:30pm 16.0 15.5 14.9 93 0.6 NW 11 13 6 7 1020.3 - 0.0
02/08:00pm 16.3 15.8 14.8 91 0.9 NW 11 13 6 7 1020.4 - 0.0
02/07:30pm 16.5 16.4 14.0 85 1.4 WNW 7 11 4 6 1020.2 - 0.0
02/07:00pm 17.3 16.7 14.6 84 1.6 N 11 15 6 8 1019.9 - 0.0
02/06:30pm 18.3 16.8 15.2 82 1.8 N 17 20 9 11 1019.7 - 0.0
02/06:00pm 19.0 17.0 15.5 80 2.1 N 20 24 11 13 1019.5 1019.5 0.0
02/05:30pm 19.2 17.3 15.7 80 2.1 N 20 26 11 14 1019.3 - 0.0
02/05:00pm 19.9 17.6 15.7 77 2.5 N 22 32 12 17 1019.2 - 0.0
02/04:30pm 20.8 18.6 16.0 74 2.9 N 22 28 12 15 1018.9 - 0.0
02/04:00pm 21.7 19.9 16.0 70 3.4 N 20 28 11 15 1019.0 - 0.0
02/03:30pm 22.1 19.7 15.5 66 3.9 NNE 22 32 12 17 1019.2 - 0.0
02/03:00pm 22.6 20.3 15.7 65 4.1 NNE 22 30 12 16 1019.4 1019.4 0.0
02/02:30pm 22.8 20.2 15.9 65 4.2 N 24 32 13 17 1019.5 - 0.0
02/02:00pm 21.1 19.1 15.6 71 3.3 NNE 20 28 11 15 1019.8 - 0.0
02/01:30pm 23.4 22.6 15.2 60 4.9 N 13 19 7 10 1020.1 - 0.0
02/01:00pm 24.4 22.3 14.8 55 5.7 NNW 19 26 10 14 1020.5 - 0.0
02/12:30pm 23.5 21.4 13.7 54 5.7 N 17 24 9 13 1020.8 - 0.0
02/12:00pm 23.2 21.7 15.3 61 4.7 NNW 17 26 9 14 1021.5 1021.5 0.0
02/11:30am 22.3 20.5 14.4 61 4.6 NNW 17 24 9 13 1022.1 - 0.0
02/11:00am 23.3 22.4 14.8 59 5.0 WNW 13 19 7 10 1022.4 - 0.0
02/10:30am 23.8 22.6 15.0 57 5.3 NW 15 26 8 14 1022.7 - 0.0
02/10:00am 22.3 20.5 14.4 61 4.6 NW 17 24 9 13 1022.9 - 0.0
02/09:30am 21.1 20.5 15.6 71 3.3 WNW 13 20 7 11 1023.1 - 0.0
02/09:00am 18.6 18.1 15.8 84 1.6 WNW 13 15 7 8 1023.2 1023.2 0.2
02/08:30am 16.0 15.7 14.5 91 0.9 WNW 9 13 5 7 1023.3 - 0.2
02/08:00am 14.1 12.8 13.6 97 0.3 WNW 13 15 7 8 1023.3 - 0.2
02/07:30am 11.7 9.7 11.4 98 0.2 WNW 13 15 7 8 1023.1 - 0.2
02/07:00am 9.8 7.2 9.3 97 0.2 W 13 15 7 8 1022.9 - 0.2
02/06:30am 9.1 5.9 8.6 97 0.2 WNW 15 17 8 9 1022.5 - 0.2
02/06:00am 8.9 5.7 8.5 97 0.2 WNW 15 15 8 8 1022.3 1022.3 0.2
02/05:30am 9.2 6.4 8.7 97 0.2 WNW 13 15 7 8 1022.1 - 0.2
02/05:00am 9.4 6.7 8.9 97 0.2 WNW 13 15 7 8 1022.0 - 0.2
02/04:30am 9.8 6.8 9.3 97 0.2 WNW 15 17 8 9 1022.0 - 0.0
02/04:00am 9.9 7.3 9.4 97 0.2 WNW 13 15 7 8 1021.8 - 0.0
02/03:30am 9.9 6.9 9.4 97 0.2 WNW 15 17 8 9 1021.9 - 0.0
02/03:00am 9.9 6.9 9.4 97 0.2 WNW 15 17 8 9 1022.0 1022.0 0.0
02/02:30am 10.2 7.7 9.7 97 0.3 WNW 13 15 7 8 1021.9 - 0.0
02/02:00am 9.4 7.0 8.8 96 0.3 WNW 11 13 6 7 1022.0 - 0.0
02/01:30am 9.9 8.1 9.3 96 0.3 W 9 11 5 6 1022.5 - 0.0
02/01:00am 10.4 8.3 9.9 97 0.3 W 11 13 6 7 1022.6 - 0.0
02/12:30am 10.4 7.9 9.8 96 0.3 WNW 13 15 7 8 1022.8 - 0.0
02/12:00am 10.6 8.2 10.0 96 0.3 WNW 13 15 7 8 1022.9 1022.9 0.0
 
Date/Time
EST
Tmp

°C
App
Tmp
°C
Dew
Point
°C
Rel
Hum
%
Delta-T

°C
Wind Press
QNH
hPa
Press
MSL
hPa
Rain
since
9 am
mm
Dir
 
Spd
km/h
Gust
km/h
Spd
kts
Gust
kts
01/11:30pm 10.8 8.8 10.2 96 0.3 WNW 11 13 6 7 1023.1 - 0.0
01/11:08pm 10.4 8.6 9.6 95 0.4 WNW 9 11 5 6 1023.3 - 0.0
01/11:00pm 10.7 9.0 9.9 95 0.4 W 9 11 5 6 1023.3 - 0.0
01/10:45pm 10.9 9.3 10.3 96 0.3 W 9 9 5 5 1023.2 - 0.0
01/10:30pm 11.5 10.1 10.9 96 0.3 W 9 11 5 6 1023.2 - 0.0
01/10:00pm 11.3 9.4 10.5 95 0.4 WNW 11 13 6 7 1023.0 - 0.0
01/09:30pm 11.4 10.3 10.6 95 0.4 WNW 7 9 4 5 1023.0 - 0.0
01/09:00pm 11.0 9.4 10.1 94 0.5 W 9 11 5 6 1023.0 1023.0 0.0
01/08:30pm 11.5 9.9 10.2 92 0.7 WNW 9 11 5 6 1022.7 - 0.0
01/08:00pm 12.5 12.1 11.2 92 0.7 W 4 6 2 3 1022.5 - 0.0
01/07:30pm 13.3 13.5 11.7 90 0.9 WSW 2 7 1 4 1022.3 - 0.0
01/07:00pm 14.0 12.8 11.5 85 1.3 W 9 11 5 6 1022.2 - 0.0
01/06:30pm 15.8 15.2 12.2 79 2.0 NNW 7 13 4 7 1021.9 - 0.0
01/06:00pm 17.4 15.7 13.5 78 2.2 NNE 15 17 8 9 1021.5 1021.5 0.0
01/05:30pm 17.6 15.9 13.5 77 2.3 N 15 19 8 10 1021.3 - 0.0
01/05:00pm 18.5 16.2 13.1 71 3.0 NNE 17 22 9 12 1021.0 - 0.0
01/04:30pm 19.6 17.0 13.3 67 3.6 NNE 19 22 10 12 1021.0 - 0.0
01/04:00pm 20.5 18.2 13.0 62 4.3 NNE 17 22 9 12 1021.0 - 0.0
01/03:30pm 21.3 18.6 13.5 61 4.5 NNE 20 24 11 13 1020.8 - 0.0
01/03:00pm 21.6 18.7 13.0 58 4.9 NNE 20 26 11 14 1020.8 1020.8 0.0
01/02:30pm 22.1 19.1 12.6 55 5.4 NNE 20 26 11 14 1020.8 - 0.0
01/02:00pm 22.4 19.2 13.2 56 5.3 NNE 22 26 12 14 1020.8 - 0.0
01/01:30pm 22.8 19.6 13.0 54 5.6 NNE 22 28 12 15 1021.1 - 0.0
01/01:00pm 22.9 20.3 13.7 56 5.3 NNE 20 26 11 14 1021.6 - 0.0
01/12:30pm 22.8 20.0 13.3 55 5.5 NNE 20 28 11 15 1022.0 - 0.0
01/12:00pm 22.9 19.9 12.5 52 5.9 NNE 20 24 11 13 1022.4 1022.4 0.0
01/11:30am 23.4 21.5 14.1 56 5.5 NNE 17 22 9 12 1022.9 - 0.0
01/11:00am 23.0 21.2 13.2 54 5.7 NE 15 20 8 11 1023.4 - 0.0
01/10:30am 22.4 21.8 13.5 57 5.1 N 9 22 5 12 1023.9 - 0.0
01/10:00am 21.0 20.9 13.9 64 4.1 WNW 7 13 4 7 1024.1 - 0.0
01/09:30am 18.2 18.0 13.5 74 2.7 W 7 9 4 5 1024.2 - 0.0
01/09:00am 15.6 15.5 13.3 86 1.3 WSW 6 7 3 4 1024.0 1024.0 0.0
01/08:30am 13.6 13.3 12.7 94 0.5 WSW 6 7 3 4 1023.7 - 0.0
01/08:00am 11.8 11.1 11.5 98 0.2 WSW 6 7 3 4 1023.3 - 0.0
01/07:30am 10.0 8.8 9.7 98 0.2 WSW 6 7 3 4 1023.2 - 0.0
01/07:00am 7.5 5.7 7.1 97 0.2 W 6 7 3 4 1022.9 - 0.0
01/06:37am 7.5 5.7 7.1 97 0.2 W 6 7 3 4 1022.8 - 0.0
01/06:30am 7.6 5.8 7.2 97 0.2 W 6 7 3 4 1022.7 - 0.0
01/06:19am 7.6 5.6 7.2 97 0.2 W 7 7 4 4 1022.8 - 0.0
01/06:18am 7.5 5.5 7.1 97 0.2 W 7 7 4 4 1022.8 - 0.0
01/06:00am 7.5 5.7 7.1 97 0.2 W 6 7 3 4 1022.7 1022.7 0.0
01/05:58am 7.4 5.4 7.0 97 0.2 W 7 9 4 5 1022.7 - 0.0
01/05:30am 7.8 5.9 7.4 97 0.2 WSW 7 9 4 5 1022.3 - 0.0
01/05:00am 7.5 5.1 7.1 97 0.2 WSW 9 9 5 5 1022.0 - 0.0
01/04:30am 7.9 6.0 7.5 97 0.2 WSW 7 9 4 5 1021.9 - 0.0
01/04:00am 8.3 6.5 7.9 97 0.2 W 7 9 4 5 1021.8 - 0.0
01/03:30am 8.0 5.7 7.6 97 0.2 W 9 11 5 6 1021.7 - 0.0
01/03:17am 8.5 6.7 8.1 97 0.2 W 7 9 4 5 1021.8 - 0.0
01/03:00am 8.3 6.1 7.9 97 0.2 W 9 9 5 5 1022.0 1022.0 0.0
01/02:30am 8.4 6.6 8.0 97 0.2 W 7 7 4 4 1022.1 - 0.0
01/02:00am 8.7 6.2 8.3 97 0.2 W 11 13 6 7 1022.0 - 0.0
01/01:30am 8.6 7.8 8.0 96 0.3 W 2 9 1 5 1022.3 - 0.0
01/01:00am 9.6 9.4 9.0 96 0.3 CALM 0 2 0 1 1022.4 - 0.0
01/12:30am 9.5 7.9 8.9 96 0.3 W 7 9 4 5 1022.4 - 0.0
01/12:00am 9.5 7.2 8.9 96 0.3 WNW 11 13 6 7 1022.3 1022.3 0.0
 
Date/Time
EST
Tmp

°C
App
Tmp
°C
Dew
Point
°C
Rel
Hum
%
Delta-T

°C
Wind Press
QNH
hPa
Press
MSL
hPa
Rain
since
9 am
mm
Dir
 
Spd
km/h
Gust
km/h
Spd
kts
Gust
kts
31/11:30pm 9.4 7.0 8.8 96 0.3 WNW 11 13 6 7 1022.2 - 0.0
31/11:00pm 9.5 7.6 8.9 96 0.3 W 9 11 5 6 1022.3 - 0.0
31/10:30pm 9.9 8.1 9.3 96 0.3 W 9 9 5 5 1022.5 - 0.0
31/10:00pm 10.1 8.6 9.3 95 0.4 W 7 9 4 5 1022.5 - 0.0
31/09:30pm 10.5 8.8 9.7 95 0.4 W 9 11 5 6 1022.4 - 0.0
31/09:00pm 11.5 10.0 10.7 95 0.4 W 9 11 5 6 1022.2 1022.2 0.0
31/08:30pm 11.1 9.4 10.0 93 0.6 W 9 9 5 5 1021.8 - 0.0
31/08:00pm 11.3 10.1 9.7 90 0.8 W 6 7 3 4 1021.7 - 0.0
31/07:30pm 13.0 12.8 11.9 93 0.6 W 4 7 2 4 1021.6 - 0.0
31/07:00pm 13.1 11.8 11.2 88 1.0 W 9 9 5 5 1021.2 - 0.0

Latest Capital City Observations: Canberra | Sydney | Melbourne | Brisbane | Adelaide | Perth | Hobart | Darwin

Other Formats:

Comma delimited format used in spreadsheet applications
http://www.bom.gov.au/fwo/IDQ60901/IDQ60901.94569.axf

JavaScript Object Notation format (JSON) in row-major order
http://www.bom.gov.au/fwo/IDQ60901/IDQ60901.94569.json